Terminal Aerodrome Forecast
Issued by NWS

Home | Current Version | Previous Version | Text Only | Print | Product List | Glossary On
Versions: 1 2 3 4 5 6 7 8 9 10 11 12 13 14 15 16 17 18 19 20 21
000
FTUS41 KPBZ 060542
TAFAGC
TAF
KAGC 060542Z 0606/0706 08003KT P6SM BKN200
     FM061500 11012G18KT P6SM -RA OVC050
     FM061800 13012G22KT 3SM -RA OVC015
     FM070000 12005KT P6SM VCSH OVC008=

USA.gov is the U.S. government's official web portal to all federal, state and local government web resources and services.